Meteo18 Weather Cam more information Meteo18 Weather Cam


Thunder radar more information blitzortung!


Rain radar more information rain snow radar



Nearby METAR Reports

   
EBAW - Antwerp
Updated: 23-10-2018 11:20
Few Clouds  
Few Clouds  
   Wind: West 20.4 km/h
Wind: West 20.4 km/h
Temperature: 11°C
Dew Point: 7°C
Humidity: 77%
Barometer: 1027 hPa
Clouds: Few Clouds
Visibility: More than 10 km
Cloud details: Few Clouds 2500 ft
EBAW 230920Z 26011KT 9999 FEW025 11/07 Q1027 NOSIG
EBLG - Li├Ęge
Updated: 23-10-2018 11:20
Clear  
Clear  
   Wind: WSW 22.2 km/h
Wind: WSW 22.2 km/h
Temperature: 9°C
Wind Chill: 6°C
Dew Point: 6°C
Humidity: 82%
Barometer: 1028 hPa
Visibility: More than 10 km
Cloud details: Clear
EBLG 230920Z 25012KT CAVOK 09/06 Q1028 NOSIG
EBCV - Mons/Bergen
Updated: 23-10-2018 11:25
Partly Cloudy  
Partly Cloudy  
   Wind: WSW 18.5 km/h
Wind: WSW 18.5 km/h
Temperature: 10°C
Wind Chill: 8°C
Dew Point: 6°C
Humidity: 76%
Barometer: 1029 hPa
Clouds: Partly Cloudy
Visibility: More than 10 km
Cloud details: Partly Cloudy 20000 ft
EBCV 230925Z AUTO 25010KT 9999 SCT200/// 10/06 Q1029 BLU
EHBK - Maastricht
Updated: 23-10-2018 11:25
Mostly Cloudy  
Mostly Cloudy  
   Wind: SW 27.8 km/h
Wind: SW 27.8 km/h
Temperature: 9°C
Wind Chill: 6°C
Dew Point: 6°C
Humidity: 82%
Barometer: 1027 hPa
Clouds: Mostly Cloudy
Visibility: More than 10 km
Cloud details: Partly Cloudy 1700 ft,
Mostly Cloudy 2000 ft
EHBK 230925Z AUTO 23015KT 200V260 9999 SCT017 BKN020 09/06 Q1027 NOSIG
ELLX - Luxemburg
Updated: 23-10-2018 11:20
Clear  
Clear  
   Wind: WSW 22.2 km/h
Wind: WSW 22.2 km/h
Temperature: 7°C
Wind Chill: 3°C
Dew Point: 4°C
Humidity: 81%
Barometer: 1029 hPa
Visibility: More than 10 km
Cloud details: Clear
ELLX 230920Z 25012KT 220V280 CAVOK 07/04 Q1029 NOSIG
EBOS - Oostende
Updated: 23-10-2018 11:20
Few Clouds  
Few Clouds  
   Wind: WNW 37 km/h
Wind: WNW 37 km/h
Temperature: 12°C
Dew Point: 7°C
Humidity: 72%
Barometer: 1029 hPa
Clouds: Few Clouds
Visibility: More than 10 km
Cloud details: Few Clouds 2000 ft
EBOS 230920Z 29020KT 9999 FEW020 12/07 Q1029 NOSIG

Script developed by  Saratoga-weather.org Adapted for the template by  Weerstation Leuven

You find our weather info also at:

Weather Underground

Equipment we use:

Weather-station
Davis Vue

Weather-program
Meteobridge

Weather-server
Raspberry PI 2 B+

Provider
1 and 1

Davis Vue

Meteobridge

Raspberry PI 2 B+

1 and 1